createdAt,value
2023-03-26T00:00:31.109Z,90
2023-03-26T00:01:31.130Z,90
2023-03-26T00:02:31.147Z,90
2023-03-26T00:03:31.138Z,90
2023-03-26T00:04:31.099Z,90
2023-03-26T00:05:31.173Z,90
2023-03-26T00:06:31.115Z,90
2023-03-26T00:07:31.083Z,90
2023-03-26T00:08:32.087Z,90
2023-03-26T00:09:32.150Z,90
2023-03-26T00:10:31.434Z,90
2023-03-26T00:11:32.107Z,90
2023-03-26T00:12:32.109Z,90
2023-03-26T00:13:32.164Z,90
2023-03-26T00:14:31.393Z,90
2023-03-26T00:15:32.100Z,90
2023-03-26T00:16:32.148Z,90
2023-03-26T00:17:32.143Z,90
2023-03-26T00:18:32.085Z,90
2023-03-26T00:19:32.105Z,90
2023-03-26T00:20:32.099Z,90
2023-03-26T00:21:32.149Z,90
2023-03-26T00:22:31.392Z,90
2023-03-26T00:23:32.089Z,90
2023-03-26T00:24:32.085Z,90
2023-03-26T00:25:32.122Z,90
2023-03-26T00:26:31.391Z,90
2023-03-26T00:27:32.084Z,90
2023-03-26T00:28:32.166Z,90
2023-03-26T00:29:32.149Z,90
2023-03-26T00:30:32.147Z,90
2023-03-26T00:31:32.082Z,90
2023-03-26T00:32:32.186Z,90
2023-03-26T00:33:32.107Z,90
2023-03-26T00:34:32.127Z,90
2023-03-26T00:35:32.147Z,90
2023-03-26T00:36:32.127Z,90
2023-03-26T00:37:32.113Z,90
2023-03-26T00:38:31.389Z,89
2023-03-26T00:39:32.074Z,89
2023-03-26T00:40:32.075Z,89
2023-03-26T00:41:32.118Z,90
2023-03-26T00:42:31.403Z,89
2023-03-26T00:43:32.133Z,89
2023-03-26T00:44:32.104Z,89
2023-03-26T00:45:32.136Z,90
2023-03-26T00:46:31.422Z,90
2023-03-26T00:47:32.134Z,89
2023-03-26T00:48:44.588Z,90
2023-03-26T00:49:32.134Z,89
2023-03-26T00:50:32.125Z,89
2023-03-26T00:51:32.103Z,89
2023-03-26T00:52:32.098Z,89
2023-03-26T00:53:32.133Z,89
2023-03-26T00:54:31.400Z,90
2023-03-26T00:55:32.101Z,90
2023-03-26T00:56:32.139Z,90
2023-03-26T00:57:35.963Z,90
2023-03-26T00:58:32.106Z,90
2023-03-26T00:59:32.108Z,90
2023-03-26T01:00:32.116Z,89
2023-03-26T01:01:32.134Z,89
2023-03-26T01:02:32.150Z,89
2023-03-26T01:03:32.177Z,89
2023-03-26T01:04:32.359Z,89
2023-03-26T01:05:32.098Z,89
2023-03-26T01:06:32.119Z,89
2023-03-26T01:07:32.112Z,89
2023-03-26T01:08:32.137Z,89
2023-03-26T01:09:32.084Z,89
2023-03-26T01:10:31.404Z,89
2023-03-26T01:11:32.122Z,89
2023-03-26T01:12:32.118Z,89
2023-03-26T01:13:32.088Z,89
2023-03-26T01:14:31.417Z,89
2023-03-26T01:15:32.125Z,89
2023-03-26T01:16:32.129Z,89
2023-03-26T01:17:32.163Z,89
2023-03-26T01:18:31.387Z,89
2023-03-26T01:19:32.074Z,89
2023-03-26T01:20:32.102Z,89
2023-03-26T01:21:32.094Z,90
2023-03-26T01:22:32.129Z,90
2023-03-26T01:23:32.092Z,90
2023-03-26T01:24:32.100Z,89
2023-03-26T01:25:32.104Z,90
2023-03-26T01:26:31.471Z,89
2023-03-26T01:27:32.140Z,89
2023-03-26T01:28:32.097Z,89
2023-03-26T01:29:32.111Z,89
2023-03-26T01:30:31.472Z,89
2023-03-26T01:31:32.082Z,89
2023-03-26T01:32:32.181Z,89
2023-03-26T01:33:32.148Z,89
2023-03-26T01:34:32.136Z,89
2023-03-26T01:35:32.346Z,89
2023-03-26T01:36:32.095Z,89
2023-03-26T01:37:32.079Z,89
2023-03-26T01:38:32.115Z,89
2023-03-26T01:39:32.084Z,90
2023-03-26T01:40:32.259Z,89
2023-03-26T01:41:32.185Z,89
2023-03-26T01:42:31.581Z,89
2023-03-26T01:43:32.275Z,89
2023-03-26T01:44:32.253Z,89
2023-03-26T01:45:32.217Z,89
2023-03-26T01:46:31.601Z,89
2023-03-26T01:47:32.336Z,89
2023-03-26T01:48:32.192Z,89
2023-03-26T01:49:32.216Z,89
2023-03-26T01:50:31.519Z,89
2023-03-26T01:51:32.250Z,89
2023-03-26T01:52:32.204Z,89
2023-03-26T01:53:32.184Z,89
2023-03-26T01:54:32.291Z,89
2023-03-26T01:55:32.177Z,89
2023-03-26T01:56:32.284Z,89
2023-03-26T01:57:32.075Z,89
2023-03-26T01:58:32.112Z,89
2023-03-26T01:59:32.098Z,89
2023-03-26T02:00:32.093Z,89
2023-03-26T02:01:32.116Z,89
2023-03-26T02:02:32.285Z,89
2023-03-26T02:03:32.229Z,89
2023-03-26T02:04:32.203Z,89
2023-03-26T02:05:32.092Z,89
2023-03-26T02:06:32.118Z,89
2023-03-26T02:07:32.092Z,89
2023-03-26T02:08:32.105Z,89
2023-03-26T02:09:32.061Z,89
2023-03-26T02:10:32.115Z,89
2023-03-26T02:11:35.780Z,89
2023-03-26T02:12:32.090Z,90
2023-03-26T02:13:32.097Z,89
2023-03-26T02:14:32.134Z,89
2023-03-26T02:15:32.083Z,89
2023-03-26T02:16:32.151Z,89
2023-03-26T02:17:32.128Z,89
2023-03-26T02:18:32.111Z,89
2023-03-26T02:19:32.100Z,89
2023-03-26T02:20:32.101Z,89
2023-03-26T02:21:32.105Z,89
2023-03-26T02:22:32.147Z,89
2023-03-26T02:23:32.101Z,89
2023-03-26T02:24:32.081Z,89
2023-03-26T02:25:32.073Z,89
2023-03-26T02:26:32.108Z,89
2023-03-26T02:27:32.124Z,89
2023-03-26T02:28:32.095Z,89
2023-03-26T02:29:32.099Z,89
2023-03-26T02:30:32.117Z,89
2023-03-26T02:31:32.119Z,89
2023-03-26T02:32:32.189Z,89
2023-03-26T02:33:32.048Z,89
2023-03-26T02:34:32.098Z,89
2023-03-26T02:35:32.134Z,89
2023-03-26T02:36:32.151Z,89
2023-03-26T02:37:32.069Z,89
2023-03-26T02:38:32.106Z,89
2023-03-26T02:39:32.090Z,89
2023-03-26T02:40:32.096Z,89
2023-03-26T02:41:32.074Z,90
2023-03-26T02:42:32.101Z,90
2023-03-26T02:43:32.093Z,90
2023-03-26T02:44:32.092Z,90
2023-03-26T02:45:32.164Z,90
2023-03-26T02:46:32.222Z,90
2023-03-26T02:47:32.087Z,90
2023-03-26T02:48:32.099Z,90
2023-03-26T02:49:32.079Z,90
2023-03-26T02:50:32.115Z,90
2023-03-26T02:51:32.057Z,91
2023-03-26T02:52:32.071Z,91
2023-03-26T02:53:32.058Z,91
2023-03-26T02:54:32.112Z,91
2023-03-26T02:55:32.107Z,91
2023-03-26T02:56:32.123Z,92
2023-03-26T02:57:32.079Z,92
2023-03-26T02:58:32.107Z,92
2023-03-26T02:59:32.076Z,92
2023-03-26T03:00:32.092Z,92
2023-03-26T03:01:32.116Z,92
2023-03-26T03:02:32.158Z,92
2023-03-26T03:03:32.107Z,92
2023-03-26T03:04:32.098Z,92
2023-03-26T03:05:32.085Z,92
2023-03-26T03:06:32.102Z,92
2023-03-26T03:07:32.061Z,92
2023-03-26T03:08:32.094Z,92
2023-03-26T03:09:32.096Z,92
2023-03-26T03:10:32.068Z,92
2023-03-26T03:11:32.176Z,92
2023-03-26T03:12:32.188Z,93
2023-03-26T03:13:32.042Z,92
2023-03-26T03:14:32.168Z,92
2023-03-26T03:15:32.057Z,92
2023-03-26T03:16:32.299Z,93
2023-03-26T03:17:32.181Z,92
2023-03-26T03:18:32.107Z,92
2023-03-26T03:19:32.235Z,92
2023-03-26T03:20:32.166Z,92
2023-03-26T03:21:32.124Z,92
2023-03-26T03:22:32.107Z,92
2023-03-26T03:23:32.177Z,92
2023-03-26T03:24:32.203Z,92
2023-03-26T03:25:32.194Z,92
2023-03-26T03:26:32.115Z,92
2023-03-26T03:27:32.179Z,92
2023-03-26T03:28:32.159Z,92
2023-03-26T03:29:32.241Z,92
2023-03-26T03:30:32.094Z,92
2023-03-26T03:31:32.268Z,92
2023-03-26T03:32:32.109Z,92
2023-03-26T03:33:32.127Z,92
2023-03-26T03:34:32.192Z,92
2023-03-26T03:35:32.183Z,92
2023-03-26T03:36:32.086Z,92
2023-03-26T03:37:32.183Z,92
2023-03-26T03:38:32.272Z,92
2023-03-26T03:39:32.088Z,92
2023-03-26T03:40:32.200Z,92
2023-03-26T03:41:32.210Z,92
2023-03-26T03:42:32.194Z,92
2023-03-26T03:43:32.101Z,92
2023-03-26T03:44:32.214Z,92
2023-03-26T03:45:32.129Z,92
2023-03-26T03:46:32.136Z,92
2023-03-26T03:47:32.102Z,92
2023-03-26T03:48:32.219Z,92
2023-03-26T03:49:32.074Z,92
2023-03-26T03:50:33.119Z,92
2023-03-26T03:51:32.077Z,92
2023-03-26T03:52:32.086Z,92
2023-03-26T03:53:32.069Z,92
2023-03-26T03:54:32.118Z,92
2023-03-26T03:55:32.079Z,92
2023-03-26T03:56:32.103Z,92
2023-03-26T03:57:32.057Z,92
2023-03-26T03:58:32.118Z,92
2023-03-26T03:59:32.077Z,91
2023-03-26T04:00:32.102Z,91
2023-03-26T04:01:32.088Z,91
2023-03-26T04:02:32.198Z,91
2023-03-26T04:03:33.166Z,91
2023-03-26T04:04:32.153Z,91
2023-03-26T04:05:32.051Z,91
2023-03-26T04:06:32.121Z,91
2023-03-26T04:07:32.076Z,91
2023-03-26T04:08:32.088Z,91
2023-03-26T04:09:32.096Z,91
2023-03-26T04:10:32.142Z,91
2023-03-26T04:11:32.063Z,91
2023-03-26T04:12:32.060Z,91
2023-03-26T04:13:32.059Z,91
2023-03-26T04:14:32.112Z,91
2023-03-26T04:15:32.071Z,91
2023-03-26T04:16:32.212Z,91
2023-03-26T04:17:32.089Z,91
2023-03-26T04:18:32.062Z,91
2023-03-26T04:19:32.053Z,91
2023-03-26T04:20:32.108Z,91
2023-03-26T04:21:32.078Z,91
2023-03-26T04:22:32.344Z,91
2023-03-26T04:23:32.090Z,91
2023-03-26T04:24:32.064Z,91
2023-03-26T04:25:32.120Z,91
2023-03-26T04:26:32.076Z,91
2023-03-26T04:27:32.066Z,91
2023-03-26T04:28:32.109Z,91
2023-03-26T04:29:32.087Z,91
2023-03-26T04:30:32.155Z,91
2023-03-26T04:31:32.115Z,91
2023-03-26T04:32:32.103Z,91
2023-03-26T04:33:32.053Z,91
2023-03-26T04:34:32.112Z,91
2023-03-26T04:35:32.087Z,91
2023-03-26T04:36:32.117Z,91
2023-03-26T04:37:32.098Z,91
2023-03-26T04:38:32.119Z,91
2023-03-26T04:39:32.071Z,91
2023-03-26T04:40:32.088Z,92
2023-03-26T04:41:32.246Z,91
2023-03-26T04:42:32.083Z,91
2023-03-26T04:43:32.059Z,91
2023-03-26T04:44:32.063Z,91
2023-03-26T04:45:32.074Z,91
2023-03-26T04:46:32.123Z,91
2023-03-26T04:47:32.118Z,91
2023-03-26T04:48:32.081Z,91
2023-03-26T04:49:32.066Z,91
2023-03-26T04:50:32.092Z,91
2023-03-26T04:51:32.062Z,91
2023-03-26T04:52:32.097Z,91
2023-03-26T04:53:32.063Z,91
2023-03-26T04:54:32.092Z,92
2023-03-26T04:55:32.066Z,91
2023-03-26T04:56:32.101Z,91
2023-03-26T04:57:32.056Z,91
2023-03-26T04:58:32.105Z,91
2023-03-26T04:59:32.087Z,91
2023-03-26T05:00:32.145Z,91
2023-03-26T05:01:32.323Z,91
2023-03-26T05:02:32.121Z,91
2023-03-26T05:03:32.086Z,92
2023-03-26T05:04:32.087Z,92
2023-03-26T05:05:32.072Z,92
2023-03-26T05:06:32.048Z,92
2023-03-26T05:07:32.078Z,92
2023-03-26T05:08:32.088Z,92
2023-03-26T05:09:32.069Z,92
2023-03-26T05:10:32.069Z,92
2023-03-26T05:11:32.129Z,92
2023-03-26T05:12:32.164Z,91
2023-03-26T05:13:32.112Z,91
2023-03-26T05:14:32.058Z,92
2023-03-26T05:15:32.111Z,92
2023-03-26T05:16:32.109Z,91
2023-03-26T05:17:32.186Z,91
2023-03-26T05:18:32.060Z,91
2023-03-26T05:19:32.059Z,91
2023-03-26T05:20:32.072Z,92
2023-03-26T05:21:32.089Z,92
2023-03-26T05:22:32.058Z,91
2023-03-26T05:23:32.053Z,91
2023-03-26T05:24:32.172Z,91
2023-03-26T05:25:32.120Z,91
2023-03-26T05:26:32.047Z,91
2023-03-26T05:27:32.054Z,91
2023-03-26T05:28:32.106Z,91
2023-03-26T05:29:32.066Z,91
2023-03-26T05:30:32.034Z,91
2023-03-26T05:31:32.047Z,91
2023-03-26T05:32:32.184Z,91
2023-03-26T05:33:32.256Z,91
2023-03-26T05:34:32.073Z,91
2023-03-26T05:35:32.081Z,91
2023-03-26T05:36:32.079Z,91
2023-03-26T05:37:32.096Z,90
2023-03-26T05:38:32.052Z,90
2023-03-26T05:39:32.088Z,90
2023-03-26T05:40:32.074Z,90
2023-03-26T05:41:32.069Z,90
2023-03-26T05:42:32.040Z,90
2023-03-26T05:43:32.054Z,90
2023-03-26T05:44:32.110Z,90
2023-03-26T05:45:32.078Z,90
2023-03-26T05:46:32.122Z,90
2023-03-26T05:47:32.139Z,90
2023-03-26T05:48:32.084Z,90
2023-03-26T05:49:32.067Z,90
2023-03-26T05:50:32.045Z,90
2023-03-26T05:51:32.058Z,90
2023-03-26T05:52:32.074Z,90
2023-03-26T05:53:32.095Z,90
2023-03-26T05:54:32.070Z,90
2023-03-26T05:55:32.070Z,90
2023-03-26T05:56:32.163Z,90
2023-03-26T05:57:32.090Z,90
2023-03-26T05:58:32.055Z,90
2023-03-26T05:59:32.047Z,90
2023-03-26T06:00:32.080Z,90
2023-03-26T06:01:32.117Z,90
2023-03-26T06:02:32.089Z,90
2023-03-26T06:03:32.157Z,89
2023-03-26T06:04:32.381Z,89
2023-03-26T06:05:32.248Z,90
2023-03-26T06:06:33.286Z,90
2023-03-26T06:07:32.067Z,90
2023-03-26T06:08:32.059Z,89
2023-03-26T06:09:32.069Z,90
2023-03-26T06:10:32.073Z,90
2023-03-26T06:11:32.152Z,90
2023-03-26T06:12:32.080Z,89
2023-03-26T06:13:32.082Z,89
2023-03-26T06:14:32.068Z,89
2023-03-26T06:15:32.058Z,89
2023-03-26T06:16:32.117Z,89
2023-03-26T06:17:32.057Z,89
2023-03-26T06:18:32.104Z,89
2023-03-26T06:19:32.056Z,89
2023-03-26T06:20:32.074Z,89
2023-03-26T06:21:32.091Z,89
2023-03-26T06:22:33.086Z,89
2023-03-26T06:23:32.044Z,89
2023-03-26T06:24:32.058Z,89
2023-03-26T06:25:32.061Z,89
2023-03-26T06:26:32.078Z,89
2023-03-26T06:27:32.038Z,89
2023-03-26T06:28:32.071Z,89
2023-03-26T06:29:32.112Z,89
2023-03-26T06:30:32.101Z,88
2023-03-26T06:31:32.076Z,88
2023-03-26T06:32:32.113Z,88
2023-03-26T06:33:32.104Z,88
2023-03-26T06:34:32.112Z,88
2023-03-26T06:35:32.086Z,88
2023-03-26T06:36:32.112Z,88
2023-03-26T06:37:32.053Z,88
2023-03-26T06:38:32.075Z,88
2023-03-26T06:39:32.062Z,88
2023-03-26T06:40:32.064Z,88
2023-03-26T06:41:32.075Z,88
2023-03-26T06:43:09.448Z,88
2023-03-26T06:43:32.066Z,88
2023-03-26T06:44:32.101Z,88
2023-03-26T06:45:32.090Z,88
2023-03-26T06:46:32.119Z,88
2023-03-26T06:47:32.092Z,88
2023-03-26T06:48:32.066Z,88
2023-03-26T06:49:32.071Z,87
2023-03-26T06:50:32.146Z,87
2023-03-26T06:51:32.063Z,87
2023-03-26T06:52:32.079Z,87
2023-03-26T06:53:32.078Z,87
2023-03-26T06:54:32.102Z,87
2023-03-26T06:55:32.086Z,87
2023-03-26T06:56:32.079Z,87
2023-03-26T06:57:32.062Z,87
2023-03-26T06:58:32.080Z,87
2023-03-26T06:59:32.114Z,87
2023-03-26T07:00:32.050Z,87
2023-03-26T07:01:32.081Z,87
2023-03-26T07:02:32.135Z,87
2023-03-26T07:03:32.064Z,87
2023-03-26T07:04:32.016Z,87
2023-03-26T07:05:32.106Z,87
2023-03-26T07:06:32.056Z,87
2023-03-26T07:07:32.059Z,87
2023-03-26T07:08:32.094Z,87
2023-03-26T07:09:32.076Z,87
2023-03-26T07:10:32.056Z,87
2023-03-26T07:11:32.126Z,87
2023-03-26T07:12:32.064Z,87
2023-03-26T07:13:32.055Z,87
2023-03-26T07:14:32.108Z,87
2023-03-26T07:15:32.049Z,87
2023-03-26T07:16:32.165Z,87
2023-03-26T07:17:32.077Z,86
2023-03-26T07:18:32.052Z,86
2023-03-26T07:19:32.062Z,86
2023-03-26T07:20:32.100Z,86
2023-03-26T07:21:32.069Z,87
2023-03-26T07:22:32.068Z,87
2023-03-26T07:23:32.030Z,87
2023-03-26T07:24:32.086Z,86
2023-03-26T07:25:32.077Z,87
2023-03-26T07:26:32.078Z,87
2023-03-26T07:27:32.038Z,87
2023-03-26T07:28:32.107Z,87
2023-03-26T07:29:32.099Z,86
2023-03-26T07:30:32.095Z,87
2023-03-26T07:31:32.096Z,87
2023-03-26T07:32:32.094Z,87
2023-03-26T07:33:32.041Z,87
2023-03-26T07:34:32.061Z,87
2023-03-26T07:35:32.097Z,87
2023-03-26T07:36:32.094Z,87
2023-03-26T07:37:32.081Z,87
2023-03-26T07:38:32.050Z,87
2023-03-26T07:39:32.041Z,87
2023-03-26T07:40:32.093Z,86
2023-03-26T07:41:32.062Z,87
2023-03-26T07:42:32.073Z,87
2023-03-26T07:43:32.080Z,87
2023-03-26T07:44:33.545Z,87
2023-03-26T07:45:32.128Z,87
2023-03-26T07:46:32.026Z,87
2023-03-26T07:47:32.093Z,87
2023-03-26T07:48:32.100Z,87
2023-03-26T07:49:32.049Z,87
2023-03-26T07:50:32.036Z,87
2023-03-26T07:51:32.015Z,87
2023-03-26T07:52:32.065Z,87
2023-03-26T07:53:32.081Z,87
2023-03-26T07:54:32.042Z,87
2023-03-26T07:55:32.046Z,87
2023-03-26T07:56:32.333Z,87
2023-03-26T07:57:32.141Z,87
2023-03-26T07:58:32.056Z,87
2023-03-26T07:59:32.021Z,87
2023-03-26T08:00:32.094Z,86
2023-03-26T08:01:32.063Z,87
2023-03-26T08:02:32.086Z,87
2023-03-26T08:03:32.154Z,87
2023-03-26T08:04:32.231Z,87
2023-03-26T08:05:32.057Z,87
2023-03-26T08:06:32.044Z,87
2023-03-26T08:07:32.048Z,87
2023-03-26T08:08:32.048Z,87
2023-03-26T08:09:32.043Z,86
2023-03-26T08:10:32.335Z,86
2023-03-26T08:11:32.056Z,86
2023-03-26T08:12:32.054Z,86
2023-03-26T08:13:32.090Z,86
2023-03-26T08:14:32.035Z,86
2023-03-26T08:15:32.086Z,86
2023-03-26T08:16:32.077Z,86
2023-03-26T08:17:32.150Z,86
2023-03-26T08:18:32.123Z,86
2023-03-26T08:19:32.033Z,86
2023-03-26T08:20:32.036Z,86
2023-03-26T08:21:32.087Z,86
2023-03-26T08:22:32.026Z,86
2023-03-26T08:23:32.068Z,85
2023-03-26T08:24:32.020Z,86
2023-03-26T08:25:32.054Z,85
2023-03-26T08:26:32.103Z,85
2023-03-26T08:27:32.082Z,85
2023-03-26T08:28:32.034Z,85
2023-03-26T08:29:32.041Z,86
2023-03-26T08:30:32.030Z,85
2023-03-26T08:31:32.078Z,85
2023-03-26T08:32:32.062Z,85
2023-03-26T08:33:32.060Z,86
2023-03-26T08:34:32.028Z,86
2023-03-26T08:35:32.060Z,85
2023-03-26T08:36:32.040Z,84
2023-03-26T08:37:32.066Z,85
2023-03-26T08:38:32.058Z,85
2023-03-26T08:39:32.102Z,85
2023-03-26T08:40:32.028Z,85
2023-03-26T08:41:32.082Z,85
2023-03-26T08:42:33.143Z,84
2023-03-26T08:43:32.036Z,84
2023-03-26T08:44:32.079Z,85
2023-03-26T08:45:32.294Z,85
2023-03-26T08:46:32.113Z,85
2023-03-26T08:47:32.056Z,85
2023-03-26T08:48:32.008Z,85
2023-03-26T08:49:32.052Z,85
2023-03-26T08:50:33.030Z,85
2023-03-26T08:51:32.050Z,85
2023-03-26T08:52:32.021Z,85
2023-03-26T08:53:32.066Z,85
2023-03-26T08:54:32.023Z,85
2023-03-26T08:55:32.049Z,85
2023-03-26T08:56:32.124Z,85
2023-03-26T08:57:32.047Z,85
2023-03-26T08:58:32.008Z,85
2023-03-26T08:59:32.048Z,85
2023-03-26T09:00:32.002Z,85
2023-03-26T09:01:32.070Z,85
2023-03-26T09:02:32.133Z,85
2023-03-26T09:03:32.143Z,85
2023-03-26T09:04:32.058Z,86
2023-03-26T09:05:32.186Z,85
2023-03-26T09:06:32.035Z,85
2023-03-26T09:07:32.067Z,85
2023-03-26T09:08:32.036Z,86
2023-03-26T09:09:32.037Z,86
2023-03-26T09:10:32.075Z,86
2023-03-26T09:11:32.063Z,86
2023-03-26T09:12:32.080Z,86
2023-03-26T09:13:32.007Z,85
2023-03-26T09:14:32.053Z,85
2023-03-26T09:15:32.032Z,86
2023-03-26T09:16:32.036Z,86
2023-03-26T09:17:32.036Z,86
2023-03-26T09:18:32.094Z,86
2023-03-26T09:19:32.028Z,86
2023-03-26T09:20:32.040Z,86
2023-03-26T09:21:32.119Z,86
2023-03-26T09:22:32.093Z,86
2023-03-26T09:23:32.029Z,86
2023-03-26T09:24:32.053Z,86
2023-03-26T09:25:32.066Z,86
2023-03-26T09:26:31.508Z,86
2023-03-26T09:27:32.015Z,86
2023-03-26T09:28:32.015Z,86
2023-03-26T09:29:32.905Z,86
2023-03-26T09:30:32.043Z,86
2023-03-26T09:31:32.050Z,86
2023-03-26T09:32:32.089Z,86
2023-03-26T09:33:32.014Z,86
2023-03-26T09:34:32.096Z,86
2023-03-26T09:35:32.112Z,86
2023-03-26T09:36:32.057Z,86
2023-03-26T09:37:32.053Z,86
2023-03-26T09:38:32.059Z,86
2023-03-26T09:39:32.064Z,86
2023-03-26T09:40:32.154Z,86
2023-03-26T09:41:32.016Z,87
2023-03-26T09:42:32.046Z,86
2023-03-26T09:43:32.041Z,86
2023-03-26T09:44:32.050Z,86
2023-03-26T09:45:32.088Z,86
2023-03-26T09:46:32.053Z,86
2023-03-26T09:47:32.069Z,86
2023-03-26T09:48:32.093Z,86
2023-03-26T09:49:32.014Z,86
2023-03-26T09:50:32.050Z,87
2023-03-26T09:51:32.088Z,86
2023-03-26T09:52:32.033Z,87
2023-03-26T09:53:32.040Z,86
2023-03-26T09:54:32.041Z,86
2023-03-26T09:55:32.015Z,86
2023-03-26T09:56:32.090Z,86
2023-03-26T09:57:32.048Z,86
2023-03-26T09:58:32.086Z,86
2023-03-26T09:59:32.020Z,86
2023-03-26T10:00:32.033Z,86
2023-03-26T10:01:32.136Z,86
2023-03-26T10:02:45.826Z,86
2023-03-26T10:03:32.043Z,86
2023-03-26T10:04:32.041Z,86
2023-03-26T10:05:32.087Z,86
2023-03-26T10:06:32.044Z,86
2023-03-26T10:07:32.034Z,86
2023-03-26T10:08:32.591Z,86
2023-03-26T10:09:32.057Z,86
2023-03-26T10:10:32.022Z,86
2023-03-26T10:11:32.047Z,86
2023-03-26T10:12:32.022Z,86
2023-03-26T10:13:32.047Z,86
2023-03-26T10:14:32.042Z,86
2023-03-26T10:15:32.034Z,87
2023-03-26T10:16:32.058Z,86
2023-03-26T10:17:32.116Z,87
2023-03-26T10:18:32.056Z,86
2023-03-26T10:19:32.332Z,86
2023-03-26T10:20:32.018Z,86
2023-03-26T10:21:32.043Z,86
2023-03-26T10:22:32.037Z,86
2023-03-26T10:23:32.041Z,86
2023-03-26T10:24:32.061Z,86
2023-03-26T10:25:32.057Z,86
2023-03-26T10:26:32.014Z,86
2023-03-26T10:27:32.072Z,87
2023-03-26T10:28:32.057Z,87
2023-03-26T10:29:32.029Z,87
2023-03-26T10:30:32.073Z,87
2023-03-26T10:31:32.091Z,87
2023-03-26T10:32:32.155Z,87
2023-03-26T10:33:32.056Z,86
2023-03-26T10:34:32.035Z,87
2023-03-26T10:35:32.118Z,87
2023-03-26T10:36:32.049Z,87
2023-03-26T10:37:32.061Z,87
2023-03-26T10:38:32.020Z,87
2023-03-26T10:39:36.648Z,87
2023-03-26T10:40:32.000Z,87
2023-03-26T10:41:32.041Z,87
2023-03-26T10:42:33.327Z,87
2023-03-26T10:43:32.027Z,87
2023-03-26T10:44:32.027Z,87
2023-03-26T10:45:32.093Z,87
2023-03-26T10:46:32.025Z,87
2023-03-26T10:47:32.050Z,87
2023-03-26T10:48:32.005Z,87
2023-03-26T10:49:32.046Z,87
2023-03-26T10:50:32.027Z,87
2023-03-26T10:51:32.033Z,86
2023-03-26T10:52:32.037Z,86
2023-03-26T10:53:32.062Z,86
2023-03-26T10:54:32.009Z,86
2023-03-26T10:55:32.029Z,86
2023-03-26T10:56:32.059Z,86
2023-03-26T10:57:32.044Z,86
2023-03-26T10:58:49.211Z,86
2023-03-26T10:59:32.064Z,86
2023-03-26T11:00:32.026Z,86
2023-03-26T11:01:32.122Z,86
2023-03-26T11:02:32.070Z,85
2023-03-26T11:03:32.040Z,85
2023-03-26T11:04:31.977Z,85
2023-03-26T11:05:32.193Z,85
2023-03-26T11:06:32.023Z,85
2023-03-26T11:07:32.051Z,85
2023-03-26T11:08:32.538Z,85
2023-03-26T11:09:32.023Z,85
2023-03-26T11:10:32.056Z,85
2023-03-26T11:11:32.041Z,85
2023-03-26T11:12:32.050Z,85
2023-03-26T11:13:32.047Z,86
2023-03-26T11:14:35.234Z,85
2023-03-26T11:15:32.090Z,85
2023-03-26T11:16:31.990Z,85
2023-03-26T11:17:40.288Z,85
2023-03-26T11:18:32.018Z,85
2023-03-26T11:19:32.063Z,84
2023-03-26T11:20:32.018Z,84
2023-03-26T11:21:32.049Z,84
2023-03-26T11:22:32.046Z,84
2023-03-26T11:23:32.018Z,83
2023-03-26T11:24:32.008Z,83
2023-03-26T11:25:32.006Z,84
2023-03-26T11:26:32.055Z,83
2023-03-26T11:27:32.036Z,83
2023-03-26T11:28:32.033Z,83
2023-03-26T11:29:33.452Z,84
2023-03-26T11:30:32.073Z,83
2023-03-26T11:31:32.147Z,83
2023-03-26T11:32:32.055Z,82
2023-03-26T11:33:32.770Z,83
2023-03-26T11:34:32.027Z,82
2023-03-26T11:35:40.540Z,82
2023-03-26T11:36:32.020Z,82
2023-03-26T11:37:32.007Z,82
2023-03-26T11:38:32.030Z,82
2023-03-26T11:39:32.063Z,81
2023-03-26T11:40:32.040Z,81
2023-03-26T11:41:32.025Z,81
2023-03-26T11:42:32.073Z,81
2023-03-26T11:43:32.046Z,81
2023-03-26T11:44:32.030Z,81
2023-03-26T11:45:32.037Z,81
2023-03-26T11:46:33.705Z,81
2023-03-26T11:47:32.092Z,81
2023-03-26T11:48:31.999Z,81
2023-03-26T11:49:32.021Z,81
2023-03-26T11:50:32.030Z,81
2023-03-26T11:51:32.098Z,81
2023-03-26T11:52:32.027Z,82
2023-03-26T11:53:31.996Z,82
2023-03-26T11:54:32.024Z,81
2023-03-26T11:55:32.060Z,81
2023-03-26T11:56:32.168Z,82
2023-03-26T11:57:32.021Z,82
2023-03-26T11:58:32.034Z,82
2023-03-26T11:59:33.841Z,82
2023-03-26T12:00:32.007Z,81
2023-03-26T12:01:32.006Z,81
2023-03-26T12:02:32.125Z,82
2023-03-26T12:03:32.068Z,82
2023-03-26T12:04:32.106Z,81
2023-03-26T12:05:32.047Z,81
2023-03-26T12:06:32.037Z,81
2023-03-26T12:07:32.073Z,81
2023-03-26T12:08:32.021Z,81
2023-03-26T12:09:32.045Z,81
2023-03-26T12:10:32.031Z,80
2023-03-26T12:11:34.616Z,80
2023-03-26T12:12:31.996Z,80
2023-03-26T12:13:32.030Z,80
2023-03-26T12:14:31.995Z,80
2023-03-26T12:15:32.027Z,80
2023-03-26T12:16:32.058Z,80
2023-03-26T12:17:32.211Z,79
2023-03-26T12:18:32.037Z,79
2023-03-26T12:19:32.061Z,79
2023-03-26T12:20:32.032Z,79
2023-03-26T12:21:32.037Z,79
2023-03-26T12:22:32.015Z,78
2023-03-26T12:23:32.007Z,78
2023-03-26T12:24:32.028Z,79
2023-03-26T12:25:32.091Z,79
2023-03-26T12:26:32.006Z,79
2023-03-26T12:27:32.005Z,79
2023-03-26T12:28:32.044Z,79
2023-03-26T12:29:32.174Z,79
2023-03-26T12:30:32.000Z,79
2023-03-26T12:31:32.086Z,79
2023-03-26T12:32:45.269Z,79
2023-03-26T12:33:32.017Z,79
2023-03-26T12:34:32.006Z,78
2023-03-26T12:35:32.088Z,78
2023-03-26T12:36:32.067Z,77
2023-03-26T12:37:32.033Z,77
2023-03-26T12:38:32.023Z,76
2023-03-26T12:40:08.988Z,76
2023-03-26T12:40:32.037Z,76
2023-03-26T12:44:44.292Z,76
2023-03-26T12:44:47.789Z,76
2023-03-26T12:44:49.731Z,76
2023-03-26T12:44:51.171Z,76
2023-03-26T12:45:32.034Z,77
2023-03-26T12:47:58.312Z,77
2023-03-26T12:47:58.514Z,77
2023-03-26T12:48:32.125Z,77
2023-03-26T12:49:31.987Z,77
2023-03-26T12:50:34.286Z,77
2023-03-26T12:51:32.009Z,77
2023-03-26T12:52:32.626Z,77
2023-03-26T12:53:31.996Z,77
2023-03-26T12:54:32.013Z,75
2023-03-26T12:55:31.995Z,76
2023-03-26T12:56:32.052Z,75
2023-03-26T12:57:32.010Z,76
2023-03-26T12:58:32.025Z,74
2023-03-26T12:59:32.082Z,74
2023-03-26T13:00:32.016Z,75
2023-03-26T13:01:32.026Z,75
2023-03-26T13:02:32.087Z,75
2023-03-26T13:03:32.099Z,76
2023-03-26T13:04:32.041Z,76
2023-03-26T13:05:32.011Z,76
2023-03-26T13:06:31.987Z,75
2023-03-26T13:07:32.045Z,75
2023-03-26T13:08:31.997Z,75
2023-03-26T13:09:32.014Z,75
2023-03-26T13:10:31.994Z,75
2023-03-26T13:11:32.016Z,75
2023-03-26T13:12:32.005Z,75
2023-03-26T13:13:32.007Z,76
2023-03-26T13:14:32.044Z,76
2023-03-26T13:15:32.024Z,75
2023-03-26T13:16:32.030Z,76
2023-03-26T13:17:32.017Z,76
2023-03-26T13:18:31.991Z,75
2023-03-26T13:19:32.022Z,75
2023-03-26T13:20:31.996Z,75
2023-03-26T13:21:32.043Z,75
2023-03-26T13:22:32.040Z,75
2023-03-26T13:23:32.012Z,76
2023-03-26T13:24:32.017Z,76
2023-03-26T13:25:32.038Z,76
2023-03-26T13:26:31.990Z,76
2023-03-26T13:27:32.040Z,75
2023-03-26T13:28:32.077Z,75
2023-03-26T13:29:31.998Z,76
2023-03-26T13:30:32.092Z,75
2023-03-26T13:31:32.089Z,75
2023-03-26T13:32:32.014Z,75
2023-03-26T13:33:31.990Z,75
2023-03-26T13:34:31.993Z,75
2023-03-26T13:35:32.156Z,75
2023-03-26T13:36:32.041Z,76
2023-03-26T13:37:32.058Z,76
2023-03-26T13:38:31.993Z,76
2023-03-26T13:39:32.006Z,76
2023-03-26T13:40:32.007Z,76
2023-03-26T13:41:32.018Z,75
2023-03-26T13:42:31.997Z,75
2023-03-26T13:43:32.023Z,75
2023-03-26T13:44:32.072Z,75
2023-03-26T13:45:32.012Z,74
2023-03-26T13:46:32.036Z,74
2023-03-26T13:47:32.089Z,73
2023-03-26T13:48:32.009Z,74
2023-03-26T13:49:32.036Z,73
2023-03-26T13:50:31.983Z,73
2023-03-26T13:51:32.041Z,73
2023-03-26T13:52:32.037Z,74
2023-03-26T13:53:32.002Z,74
2023-03-26T13:54:32.032Z,74
2023-03-26T13:55:32.022Z,75
2023-03-26T13:56:32.025Z,75
2023-03-26T13:57:32.204Z,74
2023-03-26T13:58:34.407Z,74
2023-03-26T13:59:32.042Z,74
2023-03-26T14:00:31.981Z,74
2023-03-26T14:01:32.039Z,73
2023-03-26T14:02:32.134Z,74
2023-03-26T14:03:32.022Z,73
2023-03-26T14:04:31.993Z,73
2023-03-26T14:05:32.062Z,74
2023-03-26T14:06:32.027Z,74
2023-03-26T14:07:31.995Z,74
2023-03-26T14:08:32.828Z,74
2023-03-26T14:09:31.990Z,73
2023-03-26T14:10:31.998Z,73
2023-03-26T14:11:32.032Z,73
2023-03-26T14:12:32.025Z,74
2023-03-26T14:13:32.030Z,74
2023-03-26T14:14:31.992Z,73
2023-03-26T14:15:32.044Z,74